createdAt,value
2019-06-26T00:00:13.424Z,1016.37
2019-06-26T00:01:13.410Z,1016.39
2019-06-26T00:02:13.407Z,1016.41
2019-06-26T00:03:13.390Z,1016.43
2019-06-26T00:04:13.380Z,1016.40
2019-06-26T00:05:13.390Z,1016.42
2019-06-26T00:06:13.361Z,1016.41
2019-06-26T00:07:13.347Z,1016.43
2019-06-26T00:08:13.350Z,1016.41
2019-06-26T00:09:13.329Z,1016.46
2019-06-26T00:10:13.337Z,1016.44
2019-06-26T00:11:13.306Z,1016.44
2019-06-26T00:12:13.296Z,1016.43
2019-06-26T00:13:25.719Z,1016.44
2019-06-26T00:14:14.274Z,1016.46
2019-06-26T00:15:13.284Z,1016.49
2019-06-26T00:16:13.309Z,1016.46
2019-06-26T00:17:13.252Z,1016.54
2019-06-26T00:18:13.232Z,1016.51
2019-06-26T00:19:13.225Z,1016.58
2019-06-26T00:20:13.234Z,1016.53
2019-06-26T00:21:13.204Z,1016.62
2019-06-26T00:22:13.347Z,1016.58
2019-06-26T00:23:13.181Z,1016.63
2019-06-26T00:24:13.171Z,1016.63
2019-06-26T00:25:13.182Z,1016.61
2019-06-26T00:26:13.166Z,1016.63
2019-06-26T00:27:13.140Z,1016.61
2019-06-26T00:28:13.128Z,1016.70
2019-06-26T00:29:13.120Z,1016.67
2019-06-26T00:30:13.129Z,1016.70
2019-06-26T00:31:13.098Z,1016.73
2019-06-26T00:32:13.087Z,1016.72
2019-06-26T00:33:13.075Z,1016.72
2019-06-26T00:34:13.066Z,1016.74
2019-06-26T00:35:13.092Z,1016.74
2019-06-26T00:36:13.052Z,1016.72
2019-06-26T00:37:13.035Z,1016.71
2019-06-26T00:38:13.023Z,1016.79
2019-06-26T00:39:13.019Z,1016.75
2019-06-26T00:40:13.026Z,1016.81
2019-06-26T00:41:12.990Z,1016.78
2019-06-26T00:42:12.982Z,1016.83
2019-06-26T00:43:12.969Z,1016.80
2019-06-26T00:44:12.968Z,1016.81
2019-06-26T00:45:12.949Z,1016.80
2019-06-26T00:46:12.956Z,1016.79
2019-06-26T00:47:12.929Z,1016.84
2019-06-26T00:48:12.921Z,1016.81
2019-06-26T00:49:12.907Z,1016.78
2019-06-26T00:50:12.899Z,1016.81
2019-06-26T00:51:12.906Z,1016.83
2019-06-26T00:52:12.876Z,1016.83
2019-06-26T00:53:12.873Z,1016.81
2019-06-26T00:54:12.853Z,1016.85
2019-06-26T00:55:12.865Z,1016.87
2019-06-26T00:56:12.851Z,1016.86
2019-06-26T00:57:12.835Z,1016.88
2019-06-26T00:58:12.814Z,1016.88
2019-06-26T00:59:12.802Z,1016.89
2019-06-26T01:00:12.789Z,1016.89
2019-06-26T01:01:12.797Z,1016.89
2019-06-26T01:02:12.798Z,1016.91
2019-06-26T01:03:12.758Z,1016.92
2019-06-26T01:04:12.759Z,1016.91
2019-06-26T01:05:12.736Z,1016.89
2019-06-26T01:06:12.751Z,1016.94
2019-06-26T01:07:12.715Z,1016.90
2019-06-26T01:08:12.709Z,1016.89
2019-06-26T01:09:12.694Z,1016.88
2019-06-26T01:10:12.684Z,1016.92
2019-06-26T01:11:12.705Z,1016.88
2019-06-26T01:12:12.665Z,1016.91
2019-06-26T01:13:12.655Z,1016.93
2019-06-26T01:14:12.646Z,1016.92
2019-06-26T01:15:12.634Z,1016.92
2019-06-26T01:16:12.643Z,1016.98
2019-06-26T01:17:12.614Z,1016.92
2019-06-26T01:18:12.599Z,1016.95
2019-06-26T01:19:12.590Z,1016.91
2019-06-26T01:20:12.595Z,1016.96
2019-06-26T01:21:12.574Z,1016.91
2019-06-26T01:22:12.573Z,1016.92
2019-06-26T01:23:12.593Z,1016.90
2019-06-26T01:24:12.558Z,1016.90
2019-06-26T01:25:12.529Z,1016.90
2019-06-26T01:26:13.303Z,1016.92
2019-06-26T01:27:12.528Z,1016.94
2019-06-26T01:28:12.506Z,1016.92
2019-06-26T01:29:12.481Z,1016.92
2019-06-26T01:30:12.469Z,1016.95
2019-06-26T01:31:12.461Z,1016.90
2019-06-26T01:32:12.470Z,1016.96
2019-06-26T01:33:12.457Z,1016.94
2019-06-26T01:34:12.429Z,1016.96
2019-06-26T01:35:12.419Z,1016.94
2019-06-26T01:36:12.410Z,1016.96
2019-06-26T01:37:12.426Z,1017.00
2019-06-26T01:38:12.387Z,1016.99
2019-06-26T01:39:12.374Z,1017.04
2019-06-26T01:40:12.368Z,1017.02
2019-06-26T01:41:12.361Z,1017.08
2019-06-26T01:42:12.373Z,1017.03
2019-06-26T01:43:12.332Z,1016.98
2019-06-26T01:44:15.279Z,1016.95
2019-06-26T01:45:12.310Z,1016.96
2019-06-26T01:46:12.317Z,1016.97
2019-06-26T01:47:12.309Z,1016.92
2019-06-26T01:48:12.280Z,1016.90
2019-06-26T01:49:12.272Z,1016.96
2019-06-26T01:50:12.257Z,1016.88
2019-06-26T01:51:12.257Z,1016.94
2019-06-26T01:52:12.256Z,1016.97
2019-06-26T01:53:12.224Z,1016.98
2019-06-26T01:54:12.212Z,1016.96
2019-06-26T01:55:12.209Z,1016.99
2019-06-26T01:56:12.199Z,1017.03
2019-06-26T01:57:12.203Z,1017.05
2019-06-26T01:58:12.178Z,1017.04
2019-06-26T01:59:12.156Z,1017.06
2019-06-26T02:00:12.162Z,1017.03
2019-06-26T02:01:12.140Z,1017.11
2019-06-26T02:02:12.125Z,1017.11
2019-06-26T02:03:12.143Z,1017.07
2019-06-26T02:04:15.486Z,1017.11
2019-06-26T02:05:12.122Z,1017.12
2019-06-26T02:06:12.092Z,1017.10
2019-06-26T02:07:12.071Z,1017.14
2019-06-26T02:08:12.103Z,1017.11
2019-06-26T02:09:12.048Z,1017.08
2019-06-26T02:10:12.043Z,1017.12
2019-06-26T02:11:12.033Z,1017.11
2019-06-26T02:12:12.028Z,1017.12
2019-06-26T02:13:12.393Z,1017.14
2019-06-26T02:14:12.010Z,1017.13
2019-06-26T02:15:11.985Z,1017.19
2019-06-26T02:16:12.015Z,1017.16
2019-06-26T02:17:11.963Z,1017.20
2019-06-26T02:18:11.964Z,1017.17
2019-06-26T02:19:11.960Z,1017.15
2019-06-26T02:20:11.939Z,1017.19
2019-06-26T02:21:11.930Z,1017.22
2019-06-26T02:22:11.910Z,1017.16
2019-06-26T02:23:11.897Z,1017.17
2019-06-26T02:24:11.924Z,1017.27
2019-06-26T02:25:11.876Z,1017.23
2019-06-26T02:26:11.880Z,1017.27
2019-06-26T02:27:11.874Z,1017.27
2019-06-26T02:28:11.844Z,1017.23
2019-06-26T02:29:11.866Z,1017.25
2019-06-26T02:30:11.831Z,1017.24
2019-06-26T02:31:11.815Z,1017.29
2019-06-26T02:32:11.803Z,1017.29
2019-06-26T02:33:11.793Z,1017.32
2019-06-26T02:34:11.822Z,1017.35
2019-06-26T02:35:11.768Z,1017.33
2019-06-26T02:36:11.760Z,1017.32
2019-06-26T02:37:11.750Z,1017.35
2019-06-26T02:38:11.753Z,1017.33
2019-06-26T02:39:11.745Z,1017.39
2019-06-26T02:40:11.721Z,1017.39
2019-06-26T02:41:11.705Z,1017.41
2019-06-26T02:42:11.695Z,1017.38
2019-06-26T02:43:11.685Z,1017.42
2019-06-26T02:44:11.690Z,1017.39
2019-06-26T02:45:11.659Z,1017.44
2019-06-26T02:46:11.652Z,1017.41
2019-06-26T02:47:19.630Z,1017.42
2019-06-26T02:48:12.626Z,1017.40
2019-06-26T02:49:11.635Z,1017.49
2019-06-26T02:50:11.610Z,1017.48
2019-06-26T02:51:11.598Z,1017.46
2019-06-26T02:52:11.583Z,1017.48
2019-06-26T02:53:11.583Z,1017.46
2019-06-26T02:54:11.582Z,1017.46
2019-06-26T02:55:11.551Z,1017.47
2019-06-26T02:56:11.580Z,1017.46
2019-06-26T02:57:11.534Z,1017.46
2019-06-26T02:58:11.538Z,1017.45
2019-06-26T02:59:11.525Z,1017.46
2019-06-26T03:00:11.501Z,1017.46
2019-06-26T03:01:11.500Z,1017.44
2019-06-26T03:02:11.475Z,1017.46
2019-06-26T03:03:11.473Z,1017.50
2019-06-26T03:04:11.524Z,1017.50
2019-06-26T03:05:11.443Z,1017.51
2019-06-26T03:06:11.432Z,1017.53
2019-06-26T03:07:11.420Z,1017.53
2019-06-26T03:08:11.419Z,1017.52
2019-06-26T03:09:11.436Z,1017.54
2019-06-26T03:10:11.392Z,1017.55
2019-06-26T03:11:11.388Z,1017.58
2019-06-26T03:12:11.385Z,1017.59
2019-06-26T03:13:11.402Z,1017.58
2019-06-26T03:14:11.383Z,1017.63
2019-06-26T03:15:11.336Z,1017.63
2019-06-26T03:16:11.340Z,1017.65
2019-06-26T03:17:11.321Z,1017.63
2019-06-26T03:18:11.304Z,1017.64
2019-06-26T03:19:24.022Z,1017.65
2019-06-26T03:21:55.641Z,1017.75
2019-06-26T03:24:39.762Z,1017.76
2019-06-26T03:29:08.579Z,1017.83
2019-06-26T03:33:10.401Z,1017.90
2019-06-26T03:35:27.384Z,1017.87
2019-06-26T03:36:33.830Z,1017.86
2019-06-26T03:39:52.455Z,1017.90
2019-06-26T03:40:52.360Z,1017.86
2019-06-26T03:41:52.500Z,1017.81
2019-06-26T03:42:52.332Z,1017.84
2019-06-26T03:43:52.319Z,1017.85
2019-06-26T03:44:52.326Z,1017.86
2019-06-26T03:45:52.401Z,1017.88
2019-06-26T03:46:52.294Z,1017.85
2019-06-26T03:47:52.278Z,1017.83
2019-06-26T03:48:52.264Z,1017.87
2019-06-26T03:49:52.279Z,1017.91
2019-06-26T03:50:52.244Z,1017.95
2019-06-26T03:51:52.239Z,1017.96
2019-06-26T03:52:52.225Z,1017.96
2019-06-26T03:53:52.229Z,1017.98
2019-06-26T03:54:52.235Z,1017.99
2019-06-26T03:55:52.197Z,1017.98
2019-06-26T03:56:52.181Z,1018.04
2019-06-26T03:57:52.170Z,1018.04
2019-06-26T03:58:52.171Z,1018.06
2019-06-26T03:59:52.169Z,1018.12
2019-06-26T04:00:52.137Z,1018.15
2019-06-26T04:01:52.124Z,1018.15
2019-06-26T04:02:52.128Z,1018.15
2019-06-26T04:03:52.135Z,1018.11
2019-06-26T04:04:52.113Z,1018.13
2019-06-26T04:05:52.097Z,1018.16
2019-06-26T04:06:52.076Z,1018.14
2019-06-26T04:07:52.075Z,1018.15
2019-06-26T04:08:52.048Z,1018.17
2019-06-26T04:09:52.057Z,1018.17
2019-06-26T04:10:52.033Z,1018.17
2019-06-26T04:11:52.026Z,1018.18
2019-06-26T04:12:52.111Z,1018.18
2019-06-26T04:13:51.996Z,1018.18
2019-06-26T04:14:52.014Z,1018.17
2019-06-26T04:15:51.989Z,1018.22
2019-06-26T04:16:52.002Z,1018.15
2019-06-26T04:17:51.969Z,1018.22
2019-06-26T04:18:52.009Z,1018.25
2019-06-26T04:19:51.938Z,1018.20
2019-06-26T04:20:51.949Z,1018.22
2019-06-26T04:21:51.923Z,1018.23
2019-06-26T04:22:51.905Z,1018.27
2019-06-26T04:52:00.532Z,1018.53
2019-06-26T04:53:00.134Z,1018.46
2019-06-26T04:54:00.251Z,1018.44
2019-06-26T04:54:59.754Z,1018.50
2019-06-26T04:55:59.726Z,1018.52
2019-06-26T04:56:59.927Z,1018.47
2019-06-26T04:57:59.701Z,1018.50
2019-06-26T05:00:24.967Z,1018.57
2019-06-26T05:01:18.712Z,1018.57
2019-06-26T05:02:18.736Z,1018.53
2019-06-26T05:03:25.476Z,1018.56
2019-06-26T05:11:21.357Z,1018.58
2019-06-26T05:12:21.516Z,1018.54
2019-06-26T05:13:21.447Z,1018.55
2019-06-26T05:14:21.251Z,1018.53
2019-06-26T05:15:21.181Z,1018.49
2019-06-26T05:16:21.258Z,1018.48
2019-06-26T05:17:21.222Z,1018.57
2019-06-26T05:18:21.193Z,1018.55
2019-06-26T05:19:21.163Z,1018.50
2019-06-26T05:20:21.163Z,1018.51
2019-06-26T05:21:21.118Z,1018.47
2019-06-26T05:22:21.132Z,1018.56
2019-06-26T05:23:21.088Z,1018.53
2019-06-26T05:24:21.126Z,1018.56
2019-06-26T05:25:21.128Z,1018.58
2019-06-26T05:26:21.090Z,1018.61
2019-06-26T05:27:21.112Z,1018.59
2019-06-26T05:28:21.062Z,1018.61
2019-06-26T05:29:21.101Z,1018.60
2019-06-26T05:30:21.063Z,1018.63
2019-06-26T05:31:21.029Z,1018.61
2019-06-26T05:32:21.039Z,1018.60
2019-06-26T05:33:20.995Z,1018.64
2019-06-26T05:34:21.032Z,1018.70
2019-06-26T05:35:20.970Z,1018.71
2019-06-26T05:36:21.090Z,1018.71
2019-06-26T05:37:20.980Z,1018.71
2019-06-26T05:38:20.981Z,1018.76
2019-06-26T05:39:20.914Z,1018.78
2019-06-26T05:40:20.963Z,1018.74
2019-06-26T05:41:20.974Z,1018.77
2019-06-26T05:42:20.908Z,1018.75
2019-06-26T05:43:20.998Z,1018.76
2019-06-26T05:44:20.900Z,1018.86
2019-06-26T05:45:20.944Z,1018.87
2019-06-26T05:46:30.592Z,1018.83
2019-06-26T05:47:22.244Z,1018.87
2019-06-26T05:48:20.827Z,1018.90
2019-06-26T05:49:20.852Z,1018.86
2019-06-26T05:50:20.851Z,1018.91
2019-06-26T05:52:32.378Z,1018.98
2019-06-26T05:53:32.192Z,1018.89
2019-06-26T05:54:32.336Z,1018.87
2019-06-26T05:55:32.089Z,1018.92
2019-06-26T05:56:32.141Z,1018.92
2019-06-26T05:57:32.063Z,1018.89
2019-06-26T05:58:32.046Z,1018.87
2019-06-26T05:59:32.053Z,1018.88
2019-06-26T06:00:41.038Z,1018.90
2019-06-26T06:01:32.177Z,1018.91
2019-06-26T06:02:32.269Z,1018.92
2019-06-26T06:03:41.746Z,1018.88
2019-06-26T06:04:32.108Z,1018.89
2019-06-26T06:05:32.230Z,1018.87
2019-06-26T06:06:41.598Z,1018.92
2019-06-26T06:07:32.966Z,1018.93
2019-06-26T06:08:39.697Z,1018.92
2019-06-26T06:09:32.067Z,1018.93
2019-06-26T06:10:32.189Z,1018.93
2019-06-26T06:11:31.974Z,1018.97
2019-06-26T06:12:31.950Z,1018.97
2019-06-26T06:13:31.888Z,1018.94
2019-06-26T06:14:31.950Z,1019.00
2019-06-26T06:15:31.871Z,1019.04
2019-06-26T06:16:46.234Z,1019.02
2019-06-26T06:17:32.881Z,1019.03
2019-06-26T06:18:31.831Z,1019.08
2019-06-26T06:19:31.831Z,1019.04
2019-06-26T06:20:31.821Z,1019.08
2019-06-26T06:21:31.821Z,1019.05
2019-06-26T06:22:31.798Z,1019.07
2019-06-26T06:23:31.788Z,1019.11
2019-06-26T06:24:31.809Z,1019.11
2019-06-26T06:25:31.762Z,1019.14
2019-06-26T06:26:31.769Z,1019.09
2019-06-26T06:27:31.734Z,1019.08
2019-06-26T06:28:31.728Z,1019.14
2019-06-26T06:29:31.721Z,1019.15
2019-06-26T06:30:31.703Z,1019.19
2019-06-26T06:31:31.820Z,1019.18
2019-06-26T06:32:31.683Z,1019.19
2019-06-26T06:33:31.688Z,1019.17
2019-06-26T06:34:31.657Z,1019.18
2019-06-26T06:35:31.644Z,1019.19
2019-06-26T06:36:31.634Z,1019.16
2019-06-26T06:37:31.658Z,1019.17
2019-06-26T06:38:31.611Z,1019.21
2019-06-26T06:39:31.605Z,1019.23
2019-06-26T06:40:31.594Z,1019.23
2019-06-26T06:41:31.576Z,1019.19
2019-06-26T06:42:31.585Z,1019.19
2019-06-26T06:43:31.609Z,1019.22
2019-06-26T06:44:31.548Z,1019.19
2019-06-26T06:45:31.575Z,1019.21
2019-06-26T06:46:31.526Z,1019.30
2019-06-26T06:47:31.546Z,1019.26
2019-06-26T06:48:31.506Z,1019.29
2019-06-26T06:49:31.491Z,1019.30
2019-06-26T06:50:31.488Z,1019.28
2019-06-26T06:51:31.474Z,1019.30
2019-06-26T06:52:31.480Z,1019.30
2019-06-26T06:53:31.452Z,1019.33
2019-06-26T06:54:31.440Z,1019.33
2019-06-26T06:55:31.425Z,1019.26
2019-06-26T06:56:31.425Z,1019.27
2019-06-26T06:57:31.426Z,1019.35
2019-06-26T06:58:31.399Z,1019.32
2019-06-26T06:59:31.381Z,1019.28
2019-06-26T07:00:31.373Z,1019.40
2019-06-26T07:01:31.371Z,1019.36
2019-06-26T07:02:31.376Z,1019.37
2019-06-26T07:03:31.340Z,1019.40
2019-06-26T07:04:31.332Z,1019.45
2019-06-26T07:05:31.318Z,1019.42
2019-06-26T07:06:31.314Z,1019.45
2019-06-26T07:07:31.298Z,1019.42
2019-06-26T07:08:31.312Z,1019.47
2019-06-26T07:09:31.279Z,1019.50
2019-06-26T07:10:31.278Z,1019.48
2019-06-26T07:11:31.263Z,1019.49
2019-06-26T07:12:31.261Z,1019.44
2019-06-26T07:13:31.257Z,1019.44
2019-06-26T07:14:31.227Z,1019.47
2019-06-26T07:15:31.227Z,1019.48
2019-06-26T07:16:31.205Z,1019.47
2019-06-26T07:17:31.266Z,1019.43
2019-06-26T07:18:31.210Z,1019.46
2019-06-26T07:19:31.187Z,1019.47
2019-06-26T07:20:31.162Z,1019.43
2019-06-26T07:21:31.153Z,1019.47
2019-06-26T07:22:31.147Z,1019.54
2019-06-26T07:23:31.154Z,1019.54
2019-06-26T07:24:31.135Z,1019.51
2019-06-26T07:25:31.109Z,1019.58
2019-06-26T07:26:31.252Z,1019.52
2019-06-26T07:27:31.092Z,1019.54
2019-06-26T07:28:31.167Z,1019.60
2019-06-26T07:29:31.895Z,1019.58
2019-06-26T07:30:31.057Z,1019.55
2019-06-26T07:31:31.046Z,1019.64
2019-06-26T07:32:31.041Z,1019.64
2019-06-26T07:33:31.053Z,1019.67
2019-06-26T07:34:31.060Z,1019.64
2019-06-26T07:35:31.010Z,1019.63
2019-06-26T07:36:31.020Z,1019.71
2019-06-26T07:37:30.995Z,1019.66
2019-06-26T07:38:31.007Z,1019.71
2019-06-26T07:39:31.019Z,1019.75
2019-06-26T07:40:30.957Z,1019.71
2019-06-26T07:41:30.947Z,1019.72
2019-06-26T07:42:30.987Z,1019.76
2019-06-26T07:43:30.955Z,1019.71
2019-06-26T07:44:30.929Z,1019.71
2019-06-26T07:45:30.907Z,1019.78
2019-06-26T07:46:30.913Z,1019.74
2019-06-26T07:47:42.665Z,1019.77
2019-06-26T07:48:31.924Z,1019.79
2019-06-26T07:49:30.873Z,1019.83
2019-06-26T07:50:32.580Z,1019.82
2019-06-26T07:51:30.847Z,1019.80
2019-06-26T07:52:30.834Z,1019.79
2019-06-26T07:53:30.830Z,1019.82
2019-06-26T07:54:30.860Z,1019.81
2019-06-26T07:55:30.815Z,1019.81
2019-06-26T07:56:30.794Z,1019.80
2019-06-26T07:57:30.792Z,1019.81
2019-06-26T07:58:30.777Z,1019.74
2019-06-26T07:59:30.794Z,1019.77
2019-06-26T08:00:31.769Z,1019.77
2019-06-26T08:01:30.743Z,1019.78
2019-06-26T08:02:39.011Z,1019.77
2019-06-26T08:03:30.832Z,1019.85
2019-06-26T08:04:39.334Z,1019.87
2019-06-26T08:05:30.721Z,1019.83
2019-06-26T08:06:38.247Z,1019.86
2019-06-26T08:07:30.701Z,1019.84
2019-06-26T08:08:30.885Z,1019.83
2019-06-26T08:09:30.702Z,1019.82
2019-06-26T08:10:30.650Z,1019.80
2019-06-26T08:11:30.665Z,1019.83
2019-06-26T08:12:30.631Z,1019.87
2019-06-26T08:13:30.637Z,1019.82
2019-06-26T08:14:30.633Z,1019.82
2019-06-26T08:15:30.607Z,1019.83
2019-06-26T08:16:34.284Z,1019.80
2019-06-26T08:17:30.587Z,1019.77
2019-06-26T08:18:30.656Z,1019.78
2019-06-26T08:19:30.609Z,1019.85
2019-06-26T08:20:30.569Z,1019.79
2019-06-26T08:21:30.542Z,1019.80
2019-06-26T08:22:30.528Z,1019.79
2019-06-26T08:23:30.519Z,1019.80
2019-06-26T08:24:30.539Z,1019.79
2019-06-26T08:25:30.498Z,1019.75
2019-06-26T08:26:30.492Z,1019.76
2019-06-26T08:27:30.504Z,1019.82
2019-06-26T08:28:30.474Z,1019.80
2019-06-26T08:29:30.475Z,1019.84
2019-06-26T08:30:30.444Z,1019.82
2019-06-26T08:31:30.453Z,1019.82
2019-06-26T08:32:30.424Z,1019.81
2019-06-26T08:33:30.417Z,1019.83
2019-06-26T08:34:30.449Z,1019.82
2019-06-26T08:35:30.403Z,1019.82
2019-06-26T08:36:30.410Z,1019.81
2019-06-26T08:37:30.369Z,1019.79
2019-06-26T08:38:30.359Z,1019.80
2019-06-26T08:39:30.419Z,1019.82
2019-06-26T08:40:30.333Z,1019.79
2019-06-26T08:41:30.342Z,1019.83
2019-06-26T08:42:30.315Z,1019.82
2019-06-26T08:43:31.581Z,1019.87
2019-06-26T08:44:30.312Z,1019.92
2019-06-26T08:45:30.279Z,1019.93
2019-06-26T08:46:30.271Z,1019.91
2019-06-26T08:47:30.275Z,1019.89
2019-06-26T08:48:39.370Z,1019.86
2019-06-26T08:49:31.255Z,1019.93
2019-06-26T08:50:30.247Z,1019.89
2019-06-26T08:51:30.216Z,1019.88
2019-06-26T08:52:30.199Z,1019.86
2019-06-26T08:53:30.230Z,1019.89
2019-06-26T08:54:30.209Z,1019.88
2019-06-26T08:55:30.244Z,1019.90
2019-06-26T08:56:30.166Z,1019.94
2019-06-26T08:57:30.153Z,1019.91
2019-06-26T08:58:30.139Z,1019.90
2019-06-26T08:59:30.150Z,1019.86
2019-06-26T09:00:30.112Z,1019.92
2019-06-26T09:01:30.173Z,1019.87
2019-06-26T09:02:30.099Z,1019.91
2019-06-26T09:03:30.081Z,1019.88
2019-06-26T09:04:30.097Z,1019.88
2019-06-26T09:05:48.070Z,1019.88
2019-06-26T09:06:31.095Z,1019.89
2019-06-26T09:07:30.243Z,1019.86
2019-06-26T09:08:30.179Z,1019.87
2019-06-26T09:09:30.059Z,1019.84
2019-06-26T09:10:30.016Z,1019.81
2019-06-26T09:11:30.008Z,1019.81
2019-06-26T09:12:30.024Z,1019.82
2019-06-26T09:13:29.988Z,1019.83
2019-06-26T09:14:29.983Z,1019.85
2019-06-26T09:15:29.956Z,1019.89
2019-06-26T09:16:29.948Z,1019.83
2019-06-26T09:17:29.944Z,1019.84
2019-06-26T09:18:35.420Z,1019.83
2019-06-26T09:20:40.861Z,1019.82
2019-06-26T09:21:41.017Z,1019.84
2019-06-26T09:22:40.757Z,1019.80
2019-06-26T09:23:40.711Z,1019.81
2019-06-26T09:24:40.756Z,1019.82
2019-06-26T09:25:40.746Z,1019.80
2019-06-26T09:26:40.710Z,1019.82
2019-06-26T09:27:40.694Z,1019.82
2019-06-26T09:28:40.671Z,1019.82
2019-06-26T09:29:40.680Z,1019.82
2019-06-26T09:30:40.649Z,1019.80
2019-06-26T09:31:40.626Z,1019.83
2019-06-26T09:32:40.625Z,1019.80
2019-06-26T09:33:40.718Z,1019.83
2019-06-26T09:34:40.633Z,1019.80
2019-06-26T09:35:40.620Z,1019.81
2019-06-26T09:36:40.601Z,1019.79
2019-06-26T09:37:40.568Z,1019.80
2019-06-26T09:38:40.565Z,1019.83
2019-06-26T09:39:40.586Z,1019.83
2019-06-26T09:40:40.541Z,1019.80
2019-06-26T09:41:40.561Z,1019.79
2019-06-26T09:42:40.548Z,1019.76
2019-06-26T09:43:40.513Z,1019.78
2019-06-26T09:44:48.292Z,1019.78
2019-06-26T09:45:40.703Z,1019.81
2019-06-26T09:46:40.498Z,1019.85
2019-06-26T09:47:40.479Z,1019.76
2019-06-26T09:48:52.008Z,1019.78
2019-06-26T09:49:41.483Z,1019.79
2019-06-26T09:50:40.441Z,1019.73
2019-06-26T09:51:40.453Z,1019.75
2019-06-26T09:52:40.428Z,1019.79
2019-06-26T09:53:47.196Z,1019.81
2019-06-26T09:54:41.492Z,1019.83
2019-06-26T09:55:40.393Z,1019.80
2019-06-26T09:56:48.012Z,1019.83
2019-06-26T09:57:40.505Z,1019.85
2019-06-26T09:58:41.082Z,1019.86
2019-06-26T09:59:40.400Z,1019.88
2019-06-26T10:00:40.347Z,1019.85
2019-06-26T10:01:40.328Z,1019.81
2019-06-26T10:02:48.851Z,1019.82
2019-06-26T10:03:40.354Z,1019.84
2019-06-26T10:04:40.468Z,1019.81
2019-06-26T10:05:47.902Z,1019.88
2019-06-26T10:06:40.358Z,1019.81
2019-06-26T10:07:40.479Z,1019.80
2019-06-26T10:08:40.289Z,1019.87
2019-06-26T10:09:40.297Z,1019.88
2019-06-26T10:10:40.237Z,1019.85
2019-06-26T10:11:40.227Z,1019.89
2019-06-26T10:12:40.218Z,1019.92
2019-06-26T10:13:40.203Z,1019.93
2019-06-26T10:14:47.390Z,1019.95
2019-06-26T10:15:41.220Z,1019.92
2019-06-26T10:16:40.179Z,1019.91
2019-06-26T10:17:40.166Z,1019.90
2019-06-26T10:18:40.183Z,1019.95
2019-06-26T10:19:40.172Z,1019.95
2019-06-26T10:20:40.146Z,1019.94
2019-06-26T10:21:40.132Z,1019.92
2019-06-26T10:22:40.117Z,1019.95
2019-06-26T10:23:40.122Z,1019.99
2019-06-26T10:24:40.124Z,1019.95
2019-06-26T10:25:40.089Z,1020.01
2019-06-26T10:26:40.079Z,1019.97
2019-06-26T10:27:40.084Z,1020.03
2019-06-26T10:28:40.060Z,1020.00
2019-06-26T10:29:40.099Z,1019.99
2019-06-26T10:30:40.055Z,1020.03
2019-06-26T10:31:47.813Z,1020.01
2019-06-26T10:32:40.123Z,1020.04
2019-06-26T10:33:40.078Z,1020.00
2019-06-26T10:34:41.581Z,1019.97
2019-06-26T10:35:40.083Z,1019.95
2019-06-26T10:36:39.993Z,1019.92
2019-06-26T10:37:40.198Z,1019.97
2019-06-26T10:38:40.031Z,1019.96
2019-06-26T10:39:40.532Z,1019.92
2019-06-26T10:40:39.986Z,1019.95
2019-06-26T10:41:40.599Z,1019.90
2019-06-26T10:42:40.058Z,1019.86
2019-06-26T10:43:39.952Z,1019.85
2019-06-26T10:44:39.935Z,1019.80
2019-06-26T10:45:39.906Z,1019.78
2019-06-26T10:46:39.904Z,1019.83
2019-06-26T10:47:40.255Z,1019.79
2019-06-26T10:48:39.988Z,1019.82
2019-06-26T10:49:40.348Z,1019.85
2019-06-26T10:50:49.919Z,1019.82
2019-06-26T10:52:51.115Z,1019.93
2019-06-26T10:53:58.347Z,1019.96
2019-06-26T10:54:50.627Z,1019.93
2019-06-26T10:55:58.286Z,1019.98
2019-06-26T10:56:50.586Z,1019.98
2019-06-26T10:57:58.150Z,1019.96
2019-06-26T10:58:50.542Z,1019.95
2019-06-26T10:59:50.625Z,1020.01
2019-06-26T11:00:50.518Z,1020.00
2019-06-26T11:01:50.477Z,1020.14
2019-06-26T11:02:58.337Z,1020.12
2019-06-26T11:03:50.543Z,1020.11
2019-06-26T11:04:58.172Z,1020.09
2019-06-26T11:05:50.527Z,1020.11
2019-06-26T11:06:51.915Z,1020.14
2019-06-26T11:07:50.474Z,1020.12
2019-06-26T11:08:50.456Z,1020.15
2019-06-26T11:09:50.419Z,1020.09
2019-06-26T11:10:58.604Z,1020.07
2019-06-26T11:11:50.807Z,1020.03
2019-06-26T11:12:58.049Z,1020.08
2019-06-26T11:13:50.502Z,1020.00
2019-06-26T11:15:01.233Z,1020.10
2019-06-26T11:15:50.388Z,1020.00
2019-06-26T11:16:51.330Z,1020.01
2019-06-26T11:17:50.322Z,1020.03
2019-06-26T11:18:50.313Z,1019.96
2019-06-26T11:19:57.953Z,1020.04
2019-06-26T11:20:50.364Z,1020.04
2019-06-26T11:21:50.484Z,1020.07
2019-06-26T11:22:57.955Z,1020.02
2019-06-26T11:23:50.302Z,1020.06
2019-06-26T11:24:50.480Z,1019.97
2019-06-26T11:25:51.642Z,1019.96
2019-06-26T11:26:50.214Z,1019.94
2019-06-26T11:27:50.272Z,1019.90
2019-06-26T11:28:50.205Z,1019.96
2019-06-26T11:29:50.250Z,1019.97
2019-06-26T11:30:58.468Z,1019.93
2019-06-26T11:33:07.327Z,1020.00
2019-06-26T11:34:07.489Z,1020.02
2019-06-26T11:35:07.593Z,1020.03
2019-06-26T11:36:07.196Z,1020.02
2019-06-26T11:37:15.083Z,1020.00
2019-06-26T11:38:07.363Z,1020.02
2019-06-26T11:39:15.011Z,1020.04
2019-06-26T11:40:07.243Z,1020.00
2019-06-26T11:41:14.719Z,1019.95
2019-06-26T11:42:07.191Z,1020.01
2019-06-26T11:43:14.798Z,1020.03
2019-06-26T11:44:08.058Z,1020.00
2019-06-26T11:45:16.819Z,1020.02
2019-06-26T11:46:07.151Z,1020.04
2019-06-26T11:47:14.705Z,1020.06
2019-06-26T11:48:07.117Z,1020.01
2019-06-26T11:49:07.188Z,1019.96
2019-06-26T11:50:07.135Z,1019.93
2019-06-26T11:51:07.023Z,1019.96
2019-06-26T11:52:14.736Z,1019.92
2019-06-26T11:53:16.417Z,1019.91
2019-06-26T11:54:07.127Z,1019.86
2019-06-26T11:55:07.752Z,1019.93
2019-06-26T11:56:06.973Z,1019.88
2019-06-26T11:57:08.434Z,1019.94
2019-06-26T11:58:07.063Z,1019.93
2019-06-26T11:59:06.940Z,1019.93
2019-06-26T12:00:14.708Z,1019.90
2019-06-26T12:01:07.046Z,1019.88
2019-06-26T12:02:07.048Z,1019.91
2019-06-26T12:03:06.910Z,1019.90
2019-06-26T12:04:06.889Z,1019.88
2019-06-26T12:05:07.793Z,1019.88
2019-06-26T12:06:18.876Z,1019.91
2019-06-26T12:07:06.969Z,1019.90
2019-06-26T12:08:08.339Z,1019.92
2019-06-26T12:09:06.848Z,1019.92
2019-06-26T12:10:06.948Z,1019.92
2019-06-26T12:11:06.815Z,1019.94
2019-06-26T12:12:06.835Z,1019.91
2019-06-26T12:13:06.841Z,1019.84
2019-06-26T12:14:06.797Z,1019.80
2019-06-26T12:15:14.491Z,1019.82
2019-06-26T12:16:06.837Z,1019.83
2019-06-26T12:17:14.379Z,1019.84
2019-06-26T12:18:06.805Z,1019.86
2019-06-26T12:19:06.837Z,1019.82
2019-06-26T12:20:19.144Z,1019.80
2019-06-26T12:21:07.781Z,1019.83
2019-06-26T12:22:07.141Z,1019.75
2019-06-26T12:23:06.714Z,1019.79
2019-06-26T12:24:06.727Z,1019.84
2019-06-26T12:25:06.791Z,1019.79
2019-06-26T12:26:06.737Z,1019.83
2019-06-26T12:27:06.664Z,1019.83
2019-06-26T12:28:06.672Z,1019.84
2019-06-26T12:29:06.636Z,1019.80
2019-06-26T12:30:06.630Z,1019.83
2019-06-26T12:31:14.467Z,1019.82
2019-06-26T12:32:06.793Z,1019.82
2019-06-26T12:33:14.215Z,1019.77
2019-06-26T12:34:06.640Z,1019.83
2019-06-26T12:35:06.733Z,1019.85
2019-06-26T12:36:06.580Z,1019.83
2019-06-26T12:37:06.618Z,1019.81
2019-06-26T12:38:14.154Z,1019.82
2019-06-26T12:39:06.636Z,1019.83
2019-06-26T12:40:14.121Z,1019.81
2019-06-26T12:41:06.595Z,1019.83
2019-06-26T12:42:15.208Z,1019.80
2019-06-26T12:43:06.558Z,1019.73
2019-06-26T12:44:14.141Z,1019.74
2019-06-26T12:45:06.851Z,1019.73
2019-06-26T12:46:17.210Z,1019.77
2019-06-26T12:47:06.547Z,1019.77
2019-06-26T12:48:07.688Z,1019.75
2019-06-26T12:49:06.441Z,1019.74
2019-06-26T12:50:06.439Z,1019.77
2019-06-26T12:51:14.075Z,1019.77
2019-06-26T12:52:06.509Z,1019.74
2019-06-26T12:53:06.643Z,1019.75
2019-06-26T12:54:06.432Z,1019.75
2019-06-26T12:55:06.385Z,1019.80
2019-06-26T12:56:14.026Z,1019.78
2019-06-26T12:57:06.665Z,1019.80
2019-06-26T12:58:13.163Z,1019.75
2019-06-26T12:59:07.366Z,1019.80
2019-06-26T13:00:06.328Z,1019.79